sensor_id;sensor_type;location;lat;lon;timestamp;pressure;altitude;pressure_sealevel;temperature;humidity
53651;BME280;39552;45.776;15.892;2023-01-29T00:01:19;101285.31;;;4.40;100.00
53651;BME280;39552;45.776;15.892;2023-01-29T00:03:45;101283.50;;;4.42;100.00
53651;BME280;39552;45.776;15.892;2023-01-29T00:06:16;101281.72;;;4.43;100.00
53651;BME280;39552;45.776;15.892;2023-01-29T00:08:43;101285.31;;;4.42;100.00
53651;BME280;39552;45.776;15.892;2023-01-29T00:11:24;101270.22;;;4.36;100.00
53651;BME280;39552;45.776;15.892;2023-01-29T00:13:51;101269.22;;;4.43;100.00
53651;BME280;39552;45.776;15.892;2023-01-29T00:16:18;101277.09;;;4.52;100.00
53651;BME280;39552;45.776;15.892;2023-01-29T00:18:52;101274.75;;;4.32;100.00
53651;BME280;39552;45.776;15.892;2023-01-29T00:21:21;101286.25;;;4.39;100.00
53651;BME280;39552;45.776;15.892;2023-01-29T00:23:54;101283.47;;;4.44;100.00
53651;BME280;39552;45.776;15.892;2023-01-29T00:26:21;101292.25;;;4.53;100.00
53651;BME280;39552;45.776;15.892;2023-01-29T00:28:48;101290.75;;;4.37;100.00
53651;BME280;39552;45.776;15.892;2023-01-29T00:31:16;101298.19;;;4.20;100.00
53651;BME280;39552;45.776;15.892;2023-01-29T00:33:44;101290.66;;;4.43;100.00
53651;BME280;39552;45.776;15.892;2023-01-29T00:36:12;101295.66;;;4.12;100.00
53651;BME280;39552;45.776;15.892;2023-01-29T00:38:40;101299.38;;;4.55;100.00
53651;BME280;39552;45.776;15.892;2023-01-29T00:41:08;101300.38;;;4.49;100.00
53651;BME280;39552;45.776;15.892;2023-01-29T00:43:35;101297.22;;;4.25;100.00
53651;BME280;39552;45.776;15.892;2023-01-29T00:46:01;101299.56;;;4.42;100.00
53651;BME280;39552;45.776;15.892;2023-01-29T00:48:28;101297.59;;;4.53;100.00
53651;BME280;39552;45.776;15.892;2023-01-29T00:50:55;101298.66;;;4.46;100.00
53651;BME280;39552;45.776;15.892;2023-01-29T00:53:21;101295.00;;;4.49;100.00
53651;BME280;39552;45.776;15.892;2023-01-29T00:55:49;101299.53;;;4.47;100.00
53651;BME280;39552;45.776;15.892;2023-01-29T00:58:16;101295.31;;;4.30;100.00
53651;BME280;39552;45.776;15.892;2023-01-29T01:00:43;101309.50;;;4.37;100.00
53651;BME280;39552;45.776;15.892;2023-01-29T01:03:10;101309.34;;;4.46;100.00
53651;BME280;39552;45.776;15.892;2023-01-29T01:05:36;101307.47;;;4.50;100.00
53651;BME280;39552;45.776;15.892;2023-01-29T01:08:04;101312.03;;;4.46;100.00
53651;BME280;39552;45.776;15.892;2023-01-29T01:10:31;101311.97;;;4.49;100.00
53651;BME280;39552;45.776;15.892;2023-01-29T01:13:02;101322.69;;;4.48;100.00
53651;BME280;39552;45.776;15.892;2023-01-29T01:15:30;101305.56;;;4.60;100.00
53651;BME280;39552;45.776;15.892;2023-01-29T01:17:58;101308.81;;;4.26;100.00
53651;BME280;39552;45.776;15.892;2023-01-29T01:20:26;101308.28;;;4.55;100.00
53651;BME280;39552;45.776;15.892;2023-01-29T01:22:54;101313.63;;;4.57;100.00
53651;BME280;39552;45.776;15.892;2023-01-29T01:25:21;101312.63;;;4.64;100.00
53651;BME280;39552;45.776;15.892;2023-01-29T01:27:51;101302.81;;;4.61;100.00
53651;BME280;39552;45.776;15.892;2023-01-29T01:30:19;101305.88;;;4.40;100.00
53651;BME280;39552;45.776;15.892;2023-01-29T01:32:46;101311.19;;;4.44;100.00
53651;BME280;39552;45.776;15.892;2023-01-29T01:35:12;101305.19;;;4.28;100.00
53651;BME280;39552;45.776;15.892;2023-01-29T01:37:39;101306.72;;;4.43;100.00
53651;BME280;39552;45.776;15.892;2023-01-29T01:40:10;101303.34;;;4.32;100.00
53651;BME280;39552;45.776;15.892;2023-01-29T01:42:38;101302.19;;;4.48;100.00
53651;BME280;39552;45.776;15.892;2023-01-29T01:45:13;101312.06;;;4.45;100.00
53651;BME280;39552;45.776;15.892;2023-01-29T01:47:46;101310.97;;;4.55;100.00
53651;BME280;39552;45.776;15.892;2023-01-29T01:50:17;101308.06;;;4.67;100.00
53651;BME280;39552;45.776;15.892;2023-01-29T01:52:48;101309.88;;;4.65;100.00
53651;BME280;39552;45.776;15.892;2023-01-29T01:55:18;101310.81;;;4.66;100.00
53651;BME280;39552;45.776;15.892;2023-01-29T01:57:50;101298.72;;;4.40;100.00
53651;BME280;39552;45.776;15.892;2023-01-29T02:00:19;101309.03;;;4.63;100.00
53651;BME280;39552;45.776;15.892;2023-01-29T02:02:48;101309.97;;;4.61;100.00
53651;BME280;39552;45.776;15.892;2023-01-29T02:05:14;101311.84;;;4.57;100.00
53651;BME280;39552;45.776;15.892;2023-01-29T02:07:42;101317.66;;;4.81;100.00
53651;BME280;39552;45.776;15.892;2023-01-29T02:10:13;101321.91;;;4.44;100.00
53651;BME280;39552;45.776;15.892;2023-01-29T02:12:42;101320.13;;;4.43;100.00
53651;BME280;39552;45.776;15.892;2023-01-29T02:15:11;101324.78;;;4.30;100.00
53651;BME280;39552;45.776;15.892;2023-01-29T02:17:38;101324.78;;;4.32;100.00
53651;BME280;39552;45.776;15.892;2023-01-29T02:20:12;101320.97;;;4.47;100.00
53651;BME280;39552;45.776;15.892;2023-01-29T02:23:15;101311.25;;;4.40;100.00
53651;BME280;39552;45.776;15.892;2023-01-29T02:29:01;101323.34;;;4.64;100.00
53651;BME280;39552;45.776;15.892;2023-01-29T02:31:40;101328.78;;;4.59;100.00
53651;BME280;39552;45.776;15.892;2023-01-29T02:34:15;101318.84;;;4.66;100.00
53651;BME280;39552;45.776;15.892;2023-01-29T02:36:45;101322.66;;;4.51;100.00
53651;BME280;39552;45.776;15.892;2023-01-29T02:39:17;101315.63;;;4.44;100.00
53651;BME280;39552;45.776;15.892;2023-01-29T02:41:57;101325.06;;;4.68;100.00
53651;BME280;39552;45.776;15.892;2023-01-29T02:44:30;101327.66;;;4.71;100.00
53651;BME280;39552;45.776;15.892;2023-01-29T02:47:03;101332.25;;;4.66;100.00
53651;BME280;39552;45.776;15.892;2023-01-29T02:49:36;101323.25;;;4.68;100.00
53651;BME280;39552;45.776;15.892;2023-01-29T02:52:14;101332.78;;;4.33;100.00
53651;BME280;39552;45.776;15.892;2023-01-29T02:54:45;101330.94;;;4.37;100.00
53651;BME280;39552;45.776;15.892;2023-01-29T02:57:17;101324.59;;;4.44;100.00
53651;BME280;39552;45.776;15.892;2023-01-29T02:59:50;101335.03;;;4.60;100.00
53651;BME280;39552;45.776;15.892;2023-01-29T03:02:27;101332.97;;;4.76;100.00
53651;BME280;39552;45.776;15.892;2023-01-29T03:04:59;101335.78;;;4.68;100.00
53651;BME280;39552;45.776;15.892;2023-01-29T03:07:31;101335.69;;;4.72;100.00
53651;BME280;39552;45.776;15.892;2023-01-29T03:10:02;101339.38;;;4.65;100.00
53651;BME280;39552;45.776;15.892;2023-01-29T03:12:31;101332.41;;;4.55;100.00
53651;BME280;39552;45.776;15.892;2023-01-29T03:15:01;101344.78;;;4.64;100.00
53651;BME280;39552;45.776;15.892;2023-01-29T03:17:35;101345.78;;;4.57;100.00
53651;BME280;39552;45.776;15.892;2023-01-29T03:20:05;101348.59;;;4.49;100.00
53651;BME280;39552;45.776;15.892;2023-01-29T03:22:35;101346.53;;;4.66;100.00
53651;BME280;39552;45.776;15.892;2023-01-29T03:25:04;101343.03;;;4.61;100.00
53651;BME280;39552;45.776;15.892;2023-01-29T03:27:35;101362.13;;;4.41;100.00
53651;BME280;39552;45.776;15.892;2023-01-29T03:30:07;101352.22;;;4.46;100.00
53651;BME280;39552;45.776;15.892;2023-01-29T03:32:36;101339.50;;;4.59;100.00
53651;BME280;39552;45.776;15.892;2023-01-29T03:35:06;101350.72;;;4.28;100.00
53651;BME280;39552;45.776;15.892;2023-01-29T03:37:35;101348.50;;;4.53;100.00
53651;BME280;39552;45.776;15.892;2023-01-29T03:40:06;101353.22;;;4.39;100.00
53651;BME280;39552;45.776;15.892;2023-01-29T03:42:37;101353.75;;;4.61;100.00
53651;BME280;39552;45.776;15.892;2023-01-29T03:45:13;101355.72;;;4.50;100.00
53651;BME280;39552;45.776;15.892;2023-01-29T03:47:44;101353.09;;;4.47;100.00
53651;BME280;39552;45.776;15.892;2023-01-29T03:50:23;101347.00;;;4.39;100.00
53651;BME280;39552;45.776;15.892;2023-01-29T03:53:00;101357.72;;;4.39;100.00
53651;BME280;39552;45.776;15.892;2023-01-29T03:55:36;101357.75;;;4.36;100.00
53651;BME280;39552;45.776;15.892;2023-01-29T03:58:13;101356.81;;;4.38;100.00
53651;BME280;39552;45.776;15.892;2023-01-29T04:00:51;101357.84;;;4.31;100.00
53651;BME280;39552;45.776;15.892;2023-01-29T04:03:20;101357.88;;;4.28;100.00
53651;BME280;39552;45.776;15.892;2023-01-29T04:05:51;101358.88;;;4.21;100.00
53651;BME280;39552;45.776;15.892;2023-01-29T04:08:35;101351.69;;;4.23;100.00
53651;BME280;39552;45.776;15.892;2023-01-29T04:11:10;101349.00;;;4.24;100.00
53651;BME280;39552;45.776;15.892;2023-01-29T04:13:38;101354.13;;;4.38;100.00
53651;BME280;39552;45.776;15.892;2023-01-29T04:16:10;101346.94;;;4.40;100.00
53651;BME280;39552;45.776;15.892;2023-01-29T04:18:38;101352.34;;;4.39;100.00
53651;BME280;39552;45.776;15.892;2023-01-29T04:21:05;101354.44;;;4.21;100.00
53651;BME280;39552;45.776;15.892;2023-01-29T04:23:32;101343.59;;;4.27;100.00
53651;BME280;39552;45.776;15.892;2023-01-29T04:26:19;101346.94;;;4.40;100.00
53651;BME280;39552;45.776;15.892;2023-01-29T04:28:55;101352.88;;;4.61;100.00
53651;BME280;39552;45.776;15.892;2023-01-29T04:31:27;101360.16;;;4.52;100.00
53651;BME280;39552;45.776;15.892;2023-01-29T04:34:05;101369.41;;;4.33;100.00
53651;BME280;39552;45.776;15.892;2023-01-29T04:36:40;101354.25;;;4.30;100.00
53651;BME280;39552;45.776;15.892;2023-01-29T04:39:17;101348.78;;;4.38;100.00
53651;BME280;39552;45.776;15.892;2023-01-29T04:41:51;101360.19;;;4.49;100.00
53651;BME280;39552;45.776;15.892;2023-01-29T04:44:22;101358.47;;;4.45;100.00
53651;BME280;39552;45.776;15.892;2023-01-29T04:46:57;101362.03;;;4.47;100.00
53651;BME280;39552;45.776;15.892;2023-01-29T04:49:34;101358.88;;;4.21;100.00
53651;BME280;39552;45.776;15.892;2023-01-29T04:52:07;101360.19;;;4.49;100.00
53651;BME280;39552;45.776;15.892;2023-01-29T04:54:43;101357.78;;;4.34;100.00
53651;BME280;39552;45.776;15.892;2023-01-29T04:57:16;101369.31;;;4.39;100.00
53651;BME280;39552;45.776;15.892;2023-01-29T04:59:47;101365.91;;;4.29;100.00
53651;BME280;39552;45.776;15.892;2023-01-29T05:02:18;101365.56;;;4.48;100.00
53651;BME280;39552;45.776;15.892;2023-01-29T05:04:47;101369.38;;;4.34;100.00
53651;BME280;39552;45.776;15.892;2023-01-29T05:07:16;101372.03;;;4.36;100.00
53651;BME280;39552;45.776;15.892;2023-01-29T05:09:44;101362.34;;;4.27;100.00
53651;BME280;39552;45.776;15.892;2023-01-29T05:12:13;101363.34;;;4.20;100.00
53651;BME280;39552;45.776;15.892;2023-01-29T05:14:42;101371.28;;;4.28;100.00
53651;BME280;39552;45.776;15.892;2023-01-29T05:17:14;101367.88;;;4.15;100.00
53651;BME280;39552;45.776;15.892;2023-01-29T05:19:43;101380.22;;;4.27;100.00
53651;BME280;39552;45.776;15.892;2023-01-29T05:22:12;101372.22;;;4.24;100.00
53651;BME280;39552;45.776;15.892;2023-01-29T05:24:41;101375.72;;;4.29;100.00
53651;BME280;39552;45.776;15.892;2023-01-29T05:27:10;101369.25;;;4.42;100.00
53651;BME280;39552;45.776;15.892;2023-01-29T05:29:44;101376.50;;;4.37;100.00
53651;BME280;39552;45.776;15.892;2023-01-29T05:32:11;101377.41;;;4.34;100.00
53651;BME280;39552;45.776;15.892;2023-01-29T05:34:38;101371.16;;;4.34;100.00
53651;BME280;39552;45.776;15.892;2023-01-29T05:37:06;101388.16;;;4.33;100.00
53651;BME280;39552;45.776;15.892;2023-01-29T05:39:33;101381.34;;;4.12;100.00
53651;BME280;39552;45.776;15.892;2023-01-29T05:41:59;101387.47;;;4.19;100.00
53651;BME280;39552;45.776;15.892;2023-01-29T05:44:26;101379.44;;;4.19;100.00
53651;BME280;39552;45.776;15.892;2023-01-29T05:46:52;101392.03;;;4.13;100.00
53651;BME280;39552;45.776;15.892;2023-01-29T05:49:19;101385.81;;;4.11;100.00
53651;BME280;39552;45.776;15.892;2023-01-29T05:51:46;101386.63;;;4.15;100.00
53651;BME280;39552;45.776;15.892;2023-01-29T05:54:14;101391.00;;;4.22;100.00
53651;BME280;39552;45.776;15.892;2023-01-29T05:56:41;101400.06;;;4.13;100.00
53651;BME280;39552;45.776;15.892;2023-01-29T05:59:07;101395.53;;;4.17;100.00
53651;BME280;39552;45.776;15.892;2023-01-29T06:01:34;101398.31;;;4.09;100.00
53651;BME280;39552;45.776;15.892;2023-01-29T06:04:01;101401.00;;;4.09;100.00
53651;BME280;39552;45.776;15.892;2023-01-29T06:06:28;101407.25;;;4.10;100.00
53651;BME280;39552;45.776;15.892;2023-01-29T06:08:55;101407.91;;;4.27;100.00
53651;BME280;39552;45.776;15.892;2023-01-29T06:11:23;101419.59;;;4.20;100.00
53651;BME280;39552;45.776;15.892;2023-01-29T06:13:50;101418.97;;;4.00;100.00
53651;BME280;39552;45.776;15.892;2023-01-29T06:16:16;101416.16;;;4.10;100.00
53651;BME280;39552;45.776;15.892;2023-01-29T06:18:43;101412.56;;;4.13;100.00
53651;BME280;39552;45.776;15.892;2023-01-29T06:21:11;101405.38;;;4.15;100.00
53651;BME280;39552;45.776;15.892;2023-01-29T06:23:39;101408.22;;;4.06;100.00
53651;BME280;39552;45.776;15.892;2023-01-29T06:26:07;101425.06;;;4.12;100.00
53651;BME280;39552;45.776;15.892;2023-01-29T06:28:37;101422.25;;;4.23;100.00
53651;BME280;39552;45.776;15.892;2023-01-29T06:31:05;101429.44;;;4.18;100.00
53651;BME280;39552;45.776;15.892;2023-01-29T06:33:52;101423.25;;;4.14;100.00
53651;BME280;39552;45.776;15.892;2023-01-29T06:36:19;101420.56;;;4.14;100.00
53651;BME280;39552;45.776;15.892;2023-01-29T06:38:45;101425.72;;;4.28;100.00
53651;BME280;39552;45.776;15.892;2023-01-29T06:41:15;101423.00;;;4.33;100.00
53651;BME280;39552;45.776;15.892;2023-01-29T06:43:44;101431.75;;;4.44;100.00
53651;BME280;39552;45.776;15.892;2023-01-29T06:46:11;101435.44;;;4.37;100.00
53651;BME280;39552;45.776;15.892;2023-01-29T06:48:38;101432.09;;;4.21;100.00
53651;BME280;39552;45.776;15.892;2023-01-29T06:51:06;101440.78;;;4.39;100.00
53651;BME280;39552;45.776;15.892;2023-01-29T06:53:36;101448.75;;;4.40;100.00
53651;BME280;39552;45.776;15.892;2023-01-29T06:56:04;101444.66;;;4.18;100.00
53651;BME280;39552;45.776;15.892;2023-01-29T06:58:31;101450.56;;;4.38;100.00
53651;BME280;39552;45.776;15.892;2023-01-29T07:01:03;101451.50;;;4.39;100.00
53651;BME280;39552;45.776;15.892;2023-01-29T07:03:30;101450.66;;;4.33;100.00
53651;BME280;39552;45.776;15.892;2023-01-29T07:05:57;101453.22;;;4.41;100.00
53651;BME280;39552;45.776;15.892;2023-01-29T07:08:24;101457.94;;;4.24;100.00
53651;BME280;39552;45.776;15.892;2023-01-29T07:10:50;101449.78;;;4.33;100.00
53651;BME280;39552;45.776;15.892;2023-01-29T07:13:17;101458.66;;;4.37;100.00
53651;BME280;39552;45.776;15.892;2023-01-29T07:15:44;101448.28;;;4.12;100.00
53651;BME280;39552;45.776;15.892;2023-01-29T07:18:12;101463.22;;;4.28;100.00
53651;BME280;39552;45.776;15.892;2023-01-29T07:20:39;101458.84;;;4.23;100.00
53651;BME280;39552;45.776;15.892;2023-01-29T07:23:10;101448.00;;;4.32;100.00
53651;BME280;39552;45.776;15.892;2023-01-29T07:25:37;101460.34;;;4.42;100.00
53651;BME280;39552;45.776;15.892;2023-01-29T07:28:04;101458.78;;;4.29;100.00
53651;BME280;39552;45.776;15.892;2023-01-29T07:30:31;101470.19;;;4.40;100.00
53651;BME280;39552;45.776;15.892;2023-01-29T07:33:00;101470.25;;;4.37;100.00
53651;BME280;39552;45.776;15.892;2023-01-29T07:35:28;101458.44;;;4.52;100.00
53651;BME280;39552;45.776;15.892;2023-01-29T07:37:55;101471.63;;;4.66;100.00
53651;BME280;39552;45.776;15.892;2023-01-29T07:40:22;101473.50;;;4.58;100.00
53651;BME280;39552;45.776;15.892;2023-01-29T07:42:48;101463.91;;;4.44;100.00
53651;BME280;39552;45.776;15.892;2023-01-29T07:45:15;101475.31;;;4.56;100.00
53651;BME280;39552;45.776;15.892;2023-01-29T07:47:42;101467.25;;;4.59;100.00
53651;BME280;39552;45.776;15.892;2023-01-29T07:50:09;101477.06;;;4.60;100.00
53651;BME280;39552;45.776;15.892;2023-01-29T07:52:37;101473.22;;;4.76;100.00
53651;BME280;39552;45.776;15.892;2023-01-29T07:55:05;101475.03;;;4.76;100.00
53651;BME280;39552;45.776;15.892;2023-01-29T07:57:31;101473.19;;;4.79;100.00
53651;BME280;39552;45.776;15.892;2023-01-29T07:59:58;101472.84;;;5.01;100.00
53651;BME280;39552;45.776;15.892;2023-01-29T08:02:25;101479.25;;;4.90;100.00
53651;BME280;39552;45.776;15.892;2023-01-29T08:04:52;101473.56;;;5.09;100.00
53651;BME280;39552;45.776;15.892;2023-01-29T08:07:18;101472.94;;;4.95;100.00
53651;BME280;39552;45.776;15.892;2023-01-29T08:09:46;101460.47;;;4.90;100.00
53651;BME280;39552;45.776;15.892;2023-01-29T08:12:13;101472.84;;;4.99;100.00
53651;BME280;39552;45.776;15.892;2023-01-29T08:14:40;101475.13;;;5.22;100.00
53651;BME280;39552;45.776;15.892;2023-01-29T08:17:07;101472.91;;;4.96;100.00
53651;BME280;39552;45.776;15.892;2023-01-29T08:19:33;101470.28;;;4.93;100.00
53651;BME280;39552;45.776;15.892;2023-01-29T08:22:00;101486.13;;;5.08;100.00
53651;BME280;39552;45.776;15.892;2023-01-29T08:24:26;101478.19;;;5.02;100.00
53651;BME280;39552;45.776;15.892;2023-01-29T08:27:14;101485.84;;;5.24;100.00
53651;BME280;39552;45.776;15.892;2023-01-29T08:29:41;101473.88;;;5.42;100.00
53651;BME280;39552;45.776;15.892;2023-01-29T08:32:08;101479.00;;;5.54;100.00
53651;BME280;39552;45.776;15.892;2023-01-29T08:34:35;101476.13;;;5.65;100.00
53651;BME280;39552;45.776;15.892;2023-01-29T08:37:02;101472.44;;;5.70;100.00
53651;BME280;39552;45.776;15.892;2023-01-29T08:39:28;101479.41;;;5.79;100.00
53651;BME280;39552;45.776;15.892;2023-01-29T08:41:55;101467.19;;;5.64;100.00
53651;BME280;39552;45.776;15.892;2023-01-29T08:44:23;101473.88;;;5.87;100.00
53651;BME280;39552;45.776;15.892;2023-01-29T08:46:50;101459.81;;;5.76;100.00
53651;BME280;39552;45.776;15.892;2023-01-29T08:49:16;101464.97;;;5.85;100.00
53651;BME280;39552;45.776;15.892;2023-01-29T08:51:43;101463.00;;;5.96;100.00
53651;BME280;39552;45.776;15.892;2023-01-29T08:54:10;101474.78;;;5.87;100.00
53651;BME280;39552;45.776;15.892;2023-01-29T08:56:36;101466.72;;;5.87;100.00
53651;BME280;39552;45.776;15.892;2023-01-29T08:59:03;101458.50;;;5.97;100.00
53651;BME280;39552;45.776;15.892;2023-01-29T09:01:31;101471.69;;;6.09;100.00
53651;BME280;39552;45.776;15.892;2023-01-29T09:03:58;101461.66;;;6.16;100.00
53651;BME280;39552;45.776;15.892;2023-01-29T09:06:25;101462.31;;;6.27;100.00
53651;BME280;39552;45.776;15.892;2023-01-29T09:08:52;101474.50;;;6.43;100.00
53651;BME280;39552;45.776;15.892;2023-01-29T09:11:19;101465.53;;;6.43;100.00
53651;BME280;39552;45.776;15.892;2023-01-29T09:16:37;101464.28;;;6.20;97.98
53651;BME280;39552;45.776;15.892;2023-01-29T09:19:04;101469.41;;;6.29;98.57
53651;BME280;39552;45.776;15.892;2023-01-29T09:21:31;101464.44;;;6.53;98.92
53651;BME280;39552;45.776;15.892;2023-01-29T09:23:57;101460.34;;;6.35;96.93
53651;BME280;39552;45.776;15.892;2023-01-29T09:26:24;101455.88;;;6.36;97.36
53651;BME280;39552;45.776;15.892;2023-01-29T09:28:51;101451.56;;;6.66;99.70
53651;BME280;39552;45.776;15.892;2023-01-29T09:31:17;101460.59;;;6.63;98.58
53651;BME280;39552;45.776;15.892;2023-01-29T09:33:46;101457.88;;;6.65;97.12
53651;BME280;39552;45.776;15.892;2023-01-29T09:36:13;101456.13;;;6.62;96.86
53651;BME280;39552;45.776;15.892;2023-01-29T09:38:39;101435.91;;;6.46;95.88
53651;BME280;39552;45.776;15.892;2023-01-29T09:41:17;101438.56;;;6.83;96.74
53651;BME280;39552;45.776;15.892;2023-01-29T09:43:48;101429.31;;;6.59;96.08
53651;BME280;39552;45.776;15.892;2023-01-29T09:46:20;101435.94;;;6.44;96.91
53651;BME280;39552;45.776;15.892;2023-01-29T09:49:06;101436.03;;;6.77;98.01
53651;BME280;39552;45.776;15.892;2023-01-29T09:51:38;101425.53;;;7.02;97.37
53651;BME280;39552;45.776;15.892;2023-01-29T09:54:15;101420.84;;;6.76;94.80
53651;BME280;39552;45.776;15.892;2023-01-29T09:56:44;101431.44;;;6.82;94.01
53651;BME280;39552;45.776;15.892;2023-01-29T09:59:13;101421.69;;;6.78;93.56
53651;BME280;39552;45.776;15.892;2023-01-29T10:01:48;101410.56;;;6.92;94.22
53651;BME280;39552;45.776;15.892;2023-01-29T10:04:45;101418.22;;;7.09;95.19
53651;BME280;39552;45.776;15.892;2023-01-29T10:07:36;101417.44;;;7.04;95.93
53651;BME280;39552;45.776;15.892;2023-01-29T10:10:17;101423.88;;;6.97;96.09
53651;BME280;39552;45.776;15.892;2023-01-29T10:13:00;101419.50;;;6.93;98.38
53651;BME280;39552;45.776;15.892;2023-01-29T10:15:37;101433.53;;;6.69;97.68
53651;BME280;39552;45.776;15.892;2023-01-29T10:18:29;101431.44;;;6.82;98.68
53651;BME280;39552;45.776;15.892;2023-01-29T10:21:11;101430.63;;;6.79;98.45
53651;BME280;39552;45.776;15.892;2023-01-29T10:23:45;101436.97;;;6.76;98.26
53651;BME280;39552;45.776;15.892;2023-01-29T10:26:13;101445.06;;;6.76;97.32
53651;BME280;39552;45.776;15.892;2023-01-29T10:28:42;101431.78;;;6.68;97.15
53651;BME280;39552;45.776;15.892;2023-01-29T10:31:12;101447.94;;;6.68;97.93
53651;BME280;39552;45.776;15.892;2023-01-29T10:33:43;101440.75;;;6.67;97.22
53651;BME280;39552;45.776;15.892;2023-01-29T10:36:36;101431.97;;;6.61;97.10
53651;BME280;39552;45.776;15.892;2023-01-29T10:39:04;101429.16;;;6.65;96.02
53651;BME280;39552;45.776;15.892;2023-01-29T10:41:42;101428.38;;;6.60;96.57
53651;BME280;39552;45.776;15.892;2023-01-29T10:44:22;101422.88;;;6.66;97.23
53651;BME280;39552;45.776;15.892;2023-01-29T10:47:12;101433.91;;;6.92;98.01
53651;BME280;39552;45.776;15.892;2023-01-29T10:50:01;101419.47;;;6.94;95.90
53651;BME280;39552;45.776;15.892;2023-01-29T10:52:43;101419.75;;;6.83;96.23
53651;BME280;39552;45.776;15.892;2023-01-29T10:55:27;101429.50;;;6.87;96.53
53651;BME280;39552;45.776;15.892;2023-01-29T10:58:05;101417.38;;;6.71;95.82
53651;BME280;39552;45.776;15.892;2023-01-29T11:00:35;101411.19;;;6.67;96.48
53651;BME280;39552;45.776;15.892;2023-01-29T11:03:14;101403.19;;;6.64;95.77
53651;BME280;39552;45.776;15.892;2023-01-29T11:06:09;101405.66;;;6.74;96.75
53651;BME280;39552;45.776;15.892;2023-01-29T11:08:42;101402.13;;;6.72;96.36
53651;BME280;39552;45.776;15.892;2023-01-29T11:11:13;101411.00;;;6.75;96.52
53651;BME280;39552;45.776;15.892;2023-01-29T11:13:44;101401.50;;;6.60;94.40
53651;BME280;39552;45.776;15.892;2023-01-29T11:16:11;101397.72;;;6.69;95.94
53651;BME280;39552;45.776;15.892;2023-01-29T11:18:51;101408.31;;;6.75;96.38
53651;BME280;39552;45.776;15.892;2023-01-29T11:21:18;101396.78;;;6.70;95.06
53651;BME280;39552;45.776;15.892;2023-01-29T11:23:47;101387.63;;;6.77;93.31
53651;BME280;39552;45.776;15.892;2023-01-29T11:26:17;101398.19;;;6.85;95.76
53651;BME280;39552;45.776;15.892;2023-01-29T11:28:46;101395.06;;;6.67;96.02
53651;BME280;39552;45.776;15.892;2023-01-29T11:31:15;101395.13;;;6.64;96.63
53651;BME280;39552;45.776;15.892;2023-01-29T11:33:43;101393.16;;;6.73;96.18
53651;BME280;39552;45.776;15.892;2023-01-29T11:36:26;101396.91;;;6.65;95.27
53651;BME280;39552;45.776;15.892;2023-01-29T11:39:12;101384.28;;;6.67;93.99
53651;BME280;39552;45.776;15.892;2023-01-29T11:41:45;101381.91;;;6.57;94.75
53651;BME280;39552;45.776;15.892;2023-01-29T11:44:30;101391.28;;;6.75;95.12
53651;BME280;39552;45.776;15.892;2023-01-29T11:47:10;101388.66;;;6.72;94.12
53651;BME280;39552;45.776;15.892;2023-01-29T11:49:38;101366.44;;;6.65;95.08
53651;BME280;39552;45.776;15.892;2023-01-29T11:52:08;101376.97;;;6.74;94.47
53651;BME280;39552;45.776;15.892;2023-01-29T11:54:39;101374.31;;;6.73;95.11
53651;BME280;39552;45.776;15.892;2023-01-29T11:57:28;101379.41;;;6.83;97.13
53651;BME280;39552;45.776;15.892;2023-01-29T11:59:57;101373.38;;;6.74;95.03
53651;BME280;39552;45.776;15.892;2023-01-29T12:02:32;101370.97;;;6.63;93.88
53651;BME280;39552;45.776;15.892;2023-01-29T12:05:02;101379.94;;;6.63;93.35
53651;BME280;39552;45.776;15.892;2023-01-29T12:07:30;101384.50;;;6.60;93.79
53651;BME280;39552;45.776;15.892;2023-01-29T12:09:59;101379.22;;;6.57;93.27
53651;BME280;39552;45.776;15.892;2023-01-29T12:12:28;101374.91;;;6.49;94.99
53651;BME280;39552;45.776;15.892;2023-01-29T12:15:04;101371.19;;;6.55;95.38
53651;BME280;39552;45.776;15.892;2023-01-29T12:17:36;101378.28;;;6.58;95.48
53651;BME280;39552;45.776;15.892;2023-01-29T12:20:11;101374.88;;;6.51;93.64
53651;BME280;39552;45.776;15.892;2023-01-29T12:22:43;101380.97;;;6.58;94.61
53651;BME280;39552;45.776;15.892;2023-01-29T12:25:20;101383.00;;;6.48;94.32
53651;BME280;39552;45.776;15.892;2023-01-29T12:27:53;101363.31;;;6.47;95.68
53651;BME280;39552;45.776;15.892;2023-01-29T12:30:26;101370.66;;;6.39;94.84
53651;BME280;39552;45.776;15.892;2023-01-29T12:32:58;101353.66;;;6.39;94.80
53651;BME280;39552;45.776;15.892;2023-01-29T12:35:30;101374.91;;;6.49;95.72
53651;BME280;39552;45.776;15.892;2023-01-29T12:37:59;101367.84;;;6.45;95.22
53651;BME280;39552;45.776;15.892;2023-01-29T12:40:32;101367.75;;;6.48;94.65
53651;BME280;39552;45.776;15.892;2023-01-29T12:43:06;101346.03;;;6.56;96.07
53651;BME280;39552;45.776;15.892;2023-01-29T12:45:37;101342.50;;;6.54;95.90
53651;BME280;39552;45.776;15.892;2023-01-29T12:48:07;101347.81;;;6.57;94.15
53651;BME280;39552;45.776;15.892;2023-01-29T12:50:37;101338.09;;;6.52;94.85
53651;BME280;39552;45.776;15.892;2023-01-29T12:53:06;101334.47;;;6.53;95.70
53651;BME280;39552;45.776;15.892;2023-01-29T12:55:41;101331.59;;;6.60;96.13
53651;BME280;39552;45.776;15.892;2023-01-29T12:58:13;101326.56;;;6.46;95.47
53651;BME280;39552;45.776;15.892;2023-01-29T13:00:42;101317.56;;;6.49;96.61
53651;BME280;39552;45.776;15.892;2023-01-29T13:03:13;101321.75;;;6.61;96.16
53651;BME280;39552;45.776;15.892;2023-01-29T13:05:46;101318.69;;;6.75;96.80
53651;BME280;39552;45.776;15.892;2023-01-29T13:08:18;101310.72;;;6.70;95.58